Dusty Bend, South Carolina
Current Conditions -  °F | °C
As of 12:15 PM on Saturday 25 Oct 2014 (Local Time) from KCDN Reporting Station
Clear Clear  
Wind Chill: 66°   Ceiling: Unl
Heat Index: 66°   Visibility: 10mi
Dew Point: 36°   Wind: 3mph
Humidity: 32%   Direction: 60°ENE
Pressure: 30.04"   Gusts: NA
Location:  34.2974°N, 80.6089°W
Report Text: KCDN 251615Z AUTO 06003KT 10SM CLR 19/02 A3004 RMK AO2 TSNO
Loading
Personal Weather Stations






























Interactive Weather Map
Tropical Storm Tracking
New forecast layout! Learn more

10-Day Weather Forecast

Advertisements
Track Severe Weather on mobile